sensor_id;sensor_type;location;lat;lon;timestamp;P1;durP1;ratioP1;P2;durP2;ratioP2
44147;SDS011;29810;55.848;37.368;2023-06-22T00:02:16;16.02;;;9.38;;
44147;SDS011;29810;55.848;37.368;2023-06-22T00:05:19;17.10;;;9.10;;
44147;SDS011;29810;55.848;37.368;2023-06-22T00:08:21;14.85;;;9.10;;
44147;SDS011;29810;55.848;37.368;2023-06-22T00:11:24;19.00;;;9.20;;
44147;SDS011;29810;55.848;37.368;2023-06-22T00:14:25;15.07;;;8.95;;
44147;SDS011;29810;55.848;37.368;2023-06-22T00:17:28;15.60;;;8.77;;
44147;SDS011;29810;55.848;37.368;2023-06-22T00:20:29;20.17;;;9.15;;
44147;SDS011;29810;55.848;37.368;2023-06-22T00:23:33;16.65;;;8.63;;
44147;SDS011;29810;55.848;37.368;2023-06-22T00:26:35;17.40;;;9.25;;
44147;SDS011;29810;55.848;37.368;2023-06-22T00:29:40;16.93;;;9.10;;
44147;SDS011;29810;55.848;37.368;2023-06-22T00:32:42;21.52;;;10.05;;
44147;SDS011;29810;55.848;37.368;2023-06-22T00:35:45;14.07;;;8.88;;
44147;SDS011;29810;55.848;37.368;2023-06-22T00:38:47;14.75;;;8.75;;
44147;SDS011;29810;55.848;37.368;2023-06-22T00:41:53;17.83;;;9.88;;
44147;SDS011;29810;55.848;37.368;2023-06-22T00:44:54;23.80;;;10.20;;
44147;SDS011;29810;55.848;37.368;2023-06-22T00:47:58;15.27;;;9.07;;
44147;SDS011;29810;55.848;37.368;2023-06-22T00:51:07;20.33;;;9.60;;
44147;SDS011;29810;55.848;37.368;2023-06-22T00:57:15;18.65;;;9.35;;
44147;SDS011;29810;55.848;37.368;2023-06-22T01:00:20;12.50;;;8.85;;
44147;SDS011;29810;55.848;37.368;2023-06-22T01:03:23;14.45;;;9.60;;
44147;SDS011;29810;55.848;37.368;2023-06-22T01:06:29;14.32;;;9.23;;
44147;SDS011;29810;55.848;37.368;2023-06-22T01:09:48;15.35;;;8.65;;
44147;SDS011;29810;55.848;37.368;2023-06-22T01:16:29;16.05;;;9.88;;
44147;SDS011;29810;55.848;37.368;2023-06-22T01:19:39;16.37;;;8.38;;
44147;SDS011;29810;55.848;37.368;2023-06-22T01:29:44;15.90;;;8.65;;
44147;SDS011;29810;55.848;37.368;2023-06-22T01:32:49;15.13;;;8.57;;
44147;SDS011;29810;55.848;37.368;2023-06-22T01:35:52;15.45;;;8.52;;
44147;SDS011;29810;55.848;37.368;2023-06-22T01:38:54;14.05;;;8.85;;
44147;SDS011;29810;55.848;37.368;2023-06-22T01:41:57;20.85;;;9.68;;
44147;SDS011;29810;55.848;37.368;2023-06-22T01:45:04;16.85;;;8.85;;
44147;SDS011;29810;55.848;37.368;2023-06-22T01:48:07;14.45;;;8.77;;
44147;SDS011;29810;55.848;37.368;2023-06-22T01:51:10;19.37;;;8.88;;
44147;SDS011;29810;55.848;37.368;2023-06-22T01:54:14;12.43;;;8.70;;
44147;SDS011;29810;55.848;37.368;2023-06-22T01:57:17;14.57;;;8.07;;
44147;SDS011;29810;55.848;37.368;2023-06-22T02:00:19;14.98;;;8.98;;
44147;SDS011;29810;55.848;37.368;2023-06-22T02:03:26;14.35;;;8.77;;
44147;SDS011;29810;55.848;37.368;2023-06-22T02:06:36;13.05;;;8.35;;
44147;SDS011;29810;55.848;37.368;2023-06-22T02:09:44;12.15;;;8.35;;
44147;SDS011;29810;55.848;37.368;2023-06-22T02:12:47;14.68;;;8.57;;
44147;SDS011;29810;55.848;37.368;2023-06-22T02:15:52;13.77;;;8.57;;
44147;SDS011;29810;55.848;37.368;2023-06-22T02:18:56;14.38;;;8.85;;
44147;SDS011;29810;55.848;37.368;2023-06-22T02:22:03;12.93;;;8.38;;
44147;SDS011;29810;55.848;37.368;2023-06-22T02:25:07;14.00;;;8.30;;
44147;SDS011;29810;55.848;37.368;2023-06-22T02:28:08;16.15;;;8.48;;
44147;SDS011;29810;55.848;37.368;2023-06-22T02:31:12;15.30;;;7.75;;
44147;SDS011;29810;55.848;37.368;2023-06-22T02:34:13;11.50;;;8.68;;
44147;SDS011;29810;55.848;37.368;2023-06-22T02:37:21;13.70;;;8.38;;
44147;SDS011;29810;55.848;37.368;2023-06-22T02:40:26;14.63;;;8.20;;
44147;SDS011;29810;55.848;37.368;2023-06-22T02:43:30;13.98;;;8.25;;
44147;SDS011;29810;55.848;37.368;2023-06-22T02:46:32;14.38;;;8.50;;
44147;SDS011;29810;55.848;37.368;2023-06-22T02:49:35;15.07;;;8.10;;
44147;SDS011;29810;55.848;37.368;2023-06-22T02:52:37;11.40;;;8.63;;
44147;SDS011;29810;55.848;37.368;2023-06-22T02:55:41;13.70;;;8.13;;
44147;SDS011;29810;55.848;37.368;2023-06-22T02:58:44;13.68;;;7.20;;
44147;SDS011;29810;55.848;37.368;2023-06-22T03:01:47;13.73;;;8.50;;
44147;SDS011;29810;55.848;37.368;2023-06-22T03:04:50;12.15;;;7.53;;
44147;SDS011;29810;55.848;37.368;2023-06-22T03:07:52;16.73;;;7.37;;
44147;SDS011;29810;55.848;37.368;2023-06-22T03:10:54;9.70;;;7.65;;
44147;SDS011;29810;55.848;37.368;2023-06-22T03:13:58;10.93;;;7.05;;
44147;SDS011;29810;55.848;37.368;2023-06-22T03:16:59;14.40;;;7.43;;
44147;SDS011;29810;55.848;37.368;2023-06-22T03:20:06;16.48;;;6.55;;
44147;SDS011;29810;55.848;37.368;2023-06-22T03:23:10;12.13;;;7.20;;
44147;SDS011;29810;55.848;37.368;2023-06-22T03:26:13;11.73;;;7.00;;
44147;SDS011;29810;55.848;37.368;2023-06-22T03:29:17;14.73;;;6.55;;
44147;SDS011;29810;55.848;37.368;2023-06-22T03:32:20;11.43;;;6.95;;
44147;SDS011;29810;55.848;37.368;2023-06-22T03:35:22;11.18;;;7.45;;
44147;SDS011;29810;55.848;37.368;2023-06-22T03:38:25;9.07;;;7.03;;
44147;SDS011;29810;55.848;37.368;2023-06-22T03:41:27;8.73;;;6.72;;
44147;SDS011;29810;55.848;37.368;2023-06-22T03:44:31;11.60;;;7.70;;
44147;SDS011;29810;55.848;37.368;2023-06-22T03:47:32;10.50;;;6.60;;
44147;SDS011;29810;55.848;37.368;2023-06-22T03:50:37;11.73;;;7.12;;
44147;SDS011;29810;55.848;37.368;2023-06-22T03:53:39;8.43;;;6.90;;
44147;SDS011;29810;55.848;37.368;2023-06-22T03:56:41;8.65;;;7.15;;
44147;SDS011;29810;55.848;37.368;2023-06-22T03:59:43;8.85;;;6.40;;
44147;SDS011;29810;55.848;37.368;2023-06-22T04:02:53;13.27;;;7.05;;
44147;SDS011;29810;55.848;37.368;2023-06-22T04:05:57;12.75;;;7.37;;
44147;SDS011;29810;55.848;37.368;2023-06-22T04:08:58;9.77;;;7.22;;
44147;SDS011;29810;55.848;37.368;2023-06-22T04:12:03;11.05;;;7.07;;
44147;SDS011;29810;55.848;37.368;2023-06-22T04:15:05;10.75;;;6.82;;
44147;SDS011;29810;55.848;37.368;2023-06-22T04:18:11;13.68;;;7.07;;
44147;SDS011;29810;55.848;37.368;2023-06-22T04:21:17;15.45;;;7.37;;
44147;SDS011;29810;55.848;37.368;2023-06-22T04:24:22;14.87;;;7.05;;
44147;SDS011;29810;55.848;37.368;2023-06-22T04:27:24;12.25;;;7.03;;
44147;SDS011;29810;55.848;37.368;2023-06-22T04:30:27;10.93;;;7.22;;
44147;SDS011;29810;55.848;37.368;2023-06-22T04:33:31;11.12;;;6.87;;
44147;SDS011;29810;55.848;37.368;2023-06-22T04:36:36;11.05;;;6.45;;
44147;SDS011;29810;55.848;37.368;2023-06-22T04:39:39;9.70;;;6.87;;
44147;SDS011;29810;55.848;37.368;2023-06-22T04:42:43;10.30;;;6.55;;
44147;SDS011;29810;55.848;37.368;2023-06-22T04:45:52;9.55;;;6.37;;
44147;SDS011;29810;55.848;37.368;2023-06-22T04:48:55;10.20;;;6.15;;
44147;SDS011;29810;55.848;37.368;2023-06-22T04:51:56;7.30;;;5.87;;
44147;SDS011;29810;55.848;37.368;2023-06-22T04:54:59;8.27;;;6.45;;
44147;SDS011;29810;55.848;37.368;2023-06-22T04:58:01;12.30;;;6.62;;
44147;SDS011;29810;55.848;37.368;2023-06-22T05:01:07;10.85;;;6.07;;
44147;SDS011;29810;55.848;37.368;2023-06-22T05:04:09;9.48;;;5.95;;
44147;SDS011;29810;55.848;37.368;2023-06-22T05:07:14;10.37;;;6.10;;
44147;SDS011;29810;55.848;37.368;2023-06-22T05:10:16;7.90;;;5.57;;
44147;SDS011;29810;55.848;37.368;2023-06-22T05:13:20;8.07;;;5.60;;
44147;SDS011;29810;55.848;37.368;2023-06-22T05:16:24;9.98;;;5.40;;
44147;SDS011;29810;55.848;37.368;2023-06-22T05:19:29;6.68;;;4.90;;
44147;SDS011;29810;55.848;37.368;2023-06-22T05:22:34;6.00;;;4.85;;
44147;SDS011;29810;55.848;37.368;2023-06-22T05:25:36;7.65;;;4.93;;
44147;SDS011;29810;55.848;37.368;2023-06-22T05:28:38;7.80;;;4.65;;
44147;SDS011;29810;55.848;37.368;2023-06-22T05:31:41;5.93;;;4.40;;
44147;SDS011;29810;55.848;37.368;2023-06-22T05:34:42;6.65;;;4.90;;
44147;SDS011;29810;55.848;37.368;2023-06-22T05:37:45;6.47;;;4.20;;
44147;SDS011;29810;55.848;37.368;2023-06-22T05:40:47;6.15;;;4.70;;
44147;SDS011;29810;55.848;37.368;2023-06-22T05:43:50;7.00;;;5.05;;
44147;SDS011;29810;55.848;37.368;2023-06-22T05:46:52;6.60;;;4.60;;
44147;SDS011;29810;55.848;37.368;2023-06-22T05:49:56;6.15;;;4.43;;
44147;SDS011;29810;55.848;37.368;2023-06-22T05:52:57;5.12;;;4.60;;
44147;SDS011;29810;55.848;37.368;2023-06-22T05:56:00;6.55;;;4.87;;
44147;SDS011;29810;55.848;37.368;2023-06-22T05:59:03;6.45;;;4.80;;
44147;SDS011;29810;55.848;37.368;2023-06-22T06:02:07;6.35;;;5.10;;
44147;SDS011;29810;55.848;37.368;2023-06-22T06:05:12;5.40;;;4.68;;
44147;SDS011;29810;55.848;37.368;2023-06-22T06:08:17;6.22;;;4.62;;
44147;SDS011;29810;55.848;37.368;2023-06-22T06:11:20;7.20;;;6.50;;
44147;SDS011;29810;55.848;37.368;2023-06-22T06:14:22;5.03;;;4.40;;
44147;SDS011;29810;55.848;37.368;2023-06-22T06:17:24;6.87;;;4.50;;
44147;SDS011;29810;55.848;37.368;2023-06-22T06:20:26;5.53;;;4.50;;
44147;SDS011;29810;55.848;37.368;2023-06-22T06:23:32;5.97;;;4.62;;
44147;SDS011;29810;55.848;37.368;2023-06-22T06:26:33;5.75;;;4.45;;
44147;SDS011;29810;55.848;37.368;2023-06-22T06:29:38;5.70;;;4.15;;
44147;SDS011;29810;55.848;37.368;2023-06-22T06:32:40;5.47;;;4.40;;
44147;SDS011;29810;55.848;37.368;2023-06-22T06:35:45;5.35;;;4.05;;
44147;SDS011;29810;55.848;37.368;2023-06-22T06:38:47;5.85;;;4.20;;
44147;SDS011;29810;55.848;37.368;2023-06-22T06:41:50;6.47;;;4.35;;
44147;SDS011;29810;55.848;37.368;2023-06-22T06:44:54;4.55;;;4.15;;
44147;SDS011;29810;55.848;37.368;2023-06-22T06:47:57;5.85;;;4.35;;
44147;SDS011;29810;55.848;37.368;2023-06-22T06:50:59;4.65;;;3.97;;
44147;SDS011;29810;55.848;37.368;2023-06-22T06:54:02;7.85;;;4.20;;
44147;SDS011;29810;55.848;37.368;2023-06-22T06:57:06;5.35;;;4.32;;
44147;SDS011;29810;55.848;37.368;2023-06-22T07:00:11;7.60;;;4.37;;
44147;SDS011;29810;55.848;37.368;2023-06-22T07:03:16;9.68;;;4.45;;
44147;SDS011;29810;55.848;37.368;2023-06-22T07:06:18;6.05;;;4.20;;
44147;SDS011;29810;55.848;37.368;2023-06-22T07:09:20;6.03;;;4.37;;
44147;SDS011;29810;55.848;37.368;2023-06-22T07:12:24;6.10;;;4.40;;
44147;SDS011;29810;55.848;37.368;2023-06-22T07:15:26;15.02;;;4.60;;
44147;SDS011;29810;55.848;37.368;2023-06-22T07:18:28;7.15;;;4.70;;
44147;SDS011;29810;55.848;37.368;2023-06-22T07:21:30;5.55;;;4.60;;
44147;SDS011;29810;55.848;37.368;2023-06-22T07:24:32;8.68;;;4.78;;
44147;SDS011;29810;55.848;37.368;2023-06-22T07:27:33;5.40;;;4.50;;
44147;SDS011;29810;55.848;37.368;2023-06-22T07:30:38;7.32;;;5.07;;
44147;SDS011;29810;55.848;37.368;2023-06-22T07:33:39;6.35;;;4.50;;
44147;SDS011;29810;55.848;37.368;2023-06-22T07:36:43;5.55;;;4.12;;
44147;SDS011;29810;55.848;37.368;2023-06-22T07:39:51;7.87;;;4.70;;
44147;SDS011;29810;55.848;37.368;2023-06-22T07:42:57;5.37;;;4.10;;
44147;SDS011;29810;55.848;37.368;2023-06-22T07:45:58;5.47;;;4.43;;
44147;SDS011;29810;55.848;37.368;2023-06-22T07:49:02;6.87;;;4.43;;
44147;SDS011;29810;55.848;37.368;2023-06-22T07:52:05;4.40;;;3.95;;
44147;SDS011;29810;55.848;37.368;2023-06-22T07:55:09;6.53;;;4.20;;
44147;SDS011;29810;55.848;37.368;2023-06-22T07:58:10;7.72;;;4.50;;
44147;SDS011;29810;55.848;37.368;2023-06-22T08:01:13;5.22;;;4.62;;
44147;SDS011;29810;55.848;37.368;2023-06-22T08:04:17;6.18;;;4.57;;
44147;SDS011;29810;55.848;37.368;2023-06-22T08:07:18;6.70;;;4.70;;
44147;SDS011;29810;55.848;37.368;2023-06-22T08:10:22;7.18;;;4.70;;
44147;SDS011;29810;55.848;37.368;2023-06-22T08:13:23;7.03;;;4.70;;
44147;SDS011;29810;55.848;37.368;2023-06-22T08:16:26;7.75;;;4.85;;
44147;SDS011;29810;55.848;37.368;2023-06-22T08:19:28;5.93;;;5.15;;
44147;SDS011;29810;55.848;37.368;2023-06-22T08:22:31;6.37;;;5.18;;
44147;SDS011;29810;55.848;37.368;2023-06-22T08:25:34;5.00;;;4.50;;
44147;SDS011;29810;55.848;37.368;2023-06-22T08:28:37;6.35;;;4.60;;
44147;SDS011;29810;55.848;37.368;2023-06-22T08:31:39;5.40;;;4.90;;
44147;SDS011;29810;55.848;37.368;2023-06-22T08:34:42;9.52;;;4.97;;
44147;SDS011;29810;55.848;37.368;2023-06-22T08:37:44;6.35;;;5.03;;
44147;SDS011;29810;55.848;37.368;2023-06-22T08:40:52;5.62;;;4.62;;
44147;SDS011;29810;55.848;37.368;2023-06-22T08:43:54;5.62;;;4.80;;
44147;SDS011;29810;55.848;37.368;2023-06-22T08:46:56;5.70;;;4.62;;
44147;SDS011;29810;55.848;37.368;2023-06-22T08:49:57;6.90;;;4.80;;
44147;SDS011;29810;55.848;37.368;2023-06-22T08:53:01;9.25;;;4.87;;
44147;SDS011;29810;55.848;37.368;2023-06-22T08:56:02;8.00;;;5.07;;
44147;SDS011;29810;55.848;37.368;2023-06-22T08:59:05;5.35;;;4.65;;
44147;SDS011;29810;55.848;37.368;2023-06-22T09:02:08;7.20;;;4.80;;
44147;SDS011;29810;55.848;37.368;2023-06-22T09:05:12;5.55;;;4.95;;
44147;SDS011;29810;55.848;37.368;2023-06-22T09:08:14;5.47;;;4.82;;
44147;SDS011;29810;55.848;37.368;2023-06-22T09:11:16;7.32;;;5.25;;
44147;SDS011;29810;55.848;37.368;2023-06-22T09:14:17;7.43;;;5.12;;
44147;SDS011;29810;55.848;37.368;2023-06-22T09:17:22;6.80;;;4.90;;
44147;SDS011;29810;55.848;37.368;2023-06-22T09:20:24;5.57;;;4.78;;
44147;SDS011;29810;55.848;37.368;2023-06-22T09:23:36;6.97;;;5.10;;
44147;SDS011;29810;55.848;37.368;2023-06-22T09:26:43;5.72;;;4.65;;
44147;SDS011;29810;55.848;37.368;2023-06-22T09:29:47;8.02;;;5.40;;
44147;SDS011;29810;55.848;37.368;2023-06-22T09:32:49;7.07;;;5.25;;
44147;SDS011;29810;55.848;37.368;2023-06-22T09:35:52;6.03;;;5.07;;
44147;SDS011;29810;55.848;37.368;2023-06-22T09:38:53;7.30;;;5.57;;
44147;SDS011;29810;55.848;37.368;2023-06-22T09:42:02;6.30;;;5.18;;
44147;SDS011;29810;55.848;37.368;2023-06-22T09:45:04;7.00;;;4.90;;
44147;SDS011;29810;55.848;37.368;2023-06-22T09:48:09;6.78;;;5.20;;
44147;SDS011;29810;55.848;37.368;2023-06-22T09:51:11;7.47;;;5.15;;
44147;SDS011;29810;55.848;37.368;2023-06-22T09:54:13;5.87;;;5.28;;
44147;SDS011;29810;55.848;37.368;2023-06-22T09:57:15;6.22;;;5.40;;
44147;SDS011;29810;55.848;37.368;2023-06-22T10:00:18;7.37;;;5.35;;
44147;SDS011;29810;55.848;37.368;2023-06-22T10:03:21;6.93;;;5.50;;
44147;SDS011;29810;55.848;37.368;2023-06-22T10:06:23;5.50;;;4.82;;
44147;SDS011;29810;55.848;37.368;2023-06-22T10:09:27;6.25;;;5.35;;
44147;SDS011;29810;55.848;37.368;2023-06-22T10:12:29;7.90;;;5.85;;
44147;SDS011;29810;55.848;37.368;2023-06-22T10:15:32;13.95;;;5.57;;
44147;SDS011;29810;55.848;37.368;2023-06-22T10:18:33;7.95;;;5.70;;
44147;SDS011;29810;55.848;37.368;2023-06-22T10:21:36;7.72;;;5.45;;
44147;SDS011;29810;55.848;37.368;2023-06-22T10:24:38;7.78;;;5.62;;
44147;SDS011;29810;55.848;37.368;2023-06-22T10:27:46;8.50;;;5.55;;
44147;SDS011;29810;55.848;37.368;2023-06-22T10:30:48;6.65;;;5.43;;
44147;SDS011;29810;55.848;37.368;2023-06-22T10:33:53;6.55;;;5.35;;
44147;SDS011;29810;55.848;37.368;2023-06-22T10:36:55;7.90;;;5.75;;
44147;SDS011;29810;55.848;37.368;2023-06-22T10:39:58;7.10;;;5.20;;
44147;SDS011;29810;55.848;37.368;2023-06-22T10:43:00;7.20;;;6.10;;
44147;SDS011;29810;55.848;37.368;2023-06-22T10:46:03;8.13;;;5.43;;
44147;SDS011;29810;55.848;37.368;2023-06-22T10:49:04;7.07;;;5.28;;
44147;SDS011;29810;55.848;37.368;2023-06-22T10:52:07;7.00;;;5.55;;
44147;SDS011;29810;55.848;37.368;2023-06-22T10:55:09;9.27;;;5.97;;
44147;SDS011;29810;55.848;37.368;2023-06-22T10:58:12;9.75;;;5.78;;
44147;SDS011;29810;55.848;37.368;2023-06-22T11:01:14;9.45;;;5.72;;
44147;SDS011;29810;55.848;37.368;2023-06-22T11:04:16;6.70;;;5.82;;
44147;SDS011;29810;55.848;37.368;2023-06-22T11:07:19;6.62;;;5.60;;
44147;SDS011;29810;55.848;37.368;2023-06-22T11:10:22;8.82;;;5.50;;
44147;SDS011;29810;55.848;37.368;2023-06-22T11:13:24;9.07;;;6.10;;
44147;SDS011;29810;55.848;37.368;2023-06-22T11:16:28;6.20;;;5.68;;
44147;SDS011;29810;55.848;37.368;2023-06-22T11:19:29;8.45;;;5.53;;
44147;SDS011;29810;55.848;37.368;2023-06-22T11:22:32;6.97;;;5.90;;
44147;SDS011;29810;55.848;37.368;2023-06-22T11:25:34;6.30;;;5.70;;
44147;SDS011;29810;55.848;37.368;2023-06-22T11:28:37;7.32;;;5.90;;
44147;SDS011;29810;55.848;37.368;2023-06-22T11:31:39;6.53;;;5.72;;
44147;SDS011;29810;55.848;37.368;2023-06-22T11:34:42;6.47;;;5.87;;
44147;SDS011;29810;55.848;37.368;2023-06-22T11:37:43;7.72;;;6.15;;
44147;SDS011;29810;55.848;37.368;2023-06-22T11:40:46;6.32;;;5.72;;
44147;SDS011;29810;55.848;37.368;2023-06-22T11:43:48;7.05;;;5.90;;
44147;SDS011;29810;55.848;37.368;2023-06-22T11:46:51;7.05;;;6.35;;
44147;SDS011;29810;55.848;37.368;2023-06-22T11:49:58;7.78;;;6.97;;
44147;SDS011;29810;55.848;37.368;2023-06-22T11:56:05;9.85;;;7.50;;
44147;SDS011;29810;55.848;37.368;2023-06-22T11:59:07;11.90;;;8.02;;
44147;SDS011;29810;55.848;37.368;2023-06-22T12:02:09;9.25;;;8.30;;
44147;SDS011;29810;55.848;37.368;2023-06-22T12:05:12;9.05;;;8.25;;
44147;SDS011;29810;55.848;37.368;2023-06-22T12:08:13;10.18;;;9.07;;
44147;SDS011;29810;55.848;37.368;2023-06-22T12:11:16;15.50;;;9.73;;
44147;SDS011;29810;55.848;37.368;2023-06-22T12:14:18;9.73;;;8.60;;
44147;SDS011;29810;55.848;37.368;2023-06-22T12:17:20;8.15;;;7.35;;
44147;SDS011;29810;55.848;37.368;2023-06-22T12:20:22;8.77;;;7.87;;
44147;SDS011;29810;55.848;37.368;2023-06-22T12:23:25;9.15;;;6.47;;
44147;SDS011;29810;55.848;37.368;2023-06-22T12:26:26;7.35;;;6.62;;
44147;SDS011;29810;55.848;37.368;2023-06-22T12:29:29;7.90;;;6.45;;
44147;SDS011;29810;55.848;37.368;2023-06-22T12:32:31;8.73;;;6.72;;
44147;SDS011;29810;55.848;37.368;2023-06-22T12:35:34;7.43;;;6.72;;
44147;SDS011;29810;55.848;37.368;2023-06-22T12:38:36;6.50;;;5.90;;
44147;SDS011;29810;55.848;37.368;2023-06-22T12:41:39;7.40;;;5.90;;
44147;SDS011;29810;55.848;37.368;2023-06-22T12:44:40;6.65;;;5.95;;
44147;SDS011;29810;55.848;37.368;2023-06-22T12:47:43;6.85;;;6.15;;
44147;SDS011;29810;55.848;37.368;2023-06-22T12:50:45;9.15;;;6.20;;
44147;SDS011;29810;55.848;37.368;2023-06-22T12:53:50;7.60;;;6.30;;
44147;SDS011;29810;55.848;37.368;2023-06-22T12:56:51;6.80;;;5.65;;
44147;SDS011;29810;55.848;37.368;2023-06-22T12:59:55;7.05;;;5.37;;
44147;SDS011;29810;55.848;37.368;2023-06-22T13:02:56;8.70;;;5.78;;
44147;SDS011;29810;55.848;37.368;2023-06-22T13:06:00;7.00;;;5.60;;
44147;SDS011;29810;55.848;37.368;2023-06-22T13:09:01;6.32;;;5.70;;
44147;SDS011;29810;55.848;37.368;2023-06-22T13:12:04;6.47;;;5.87;;
44147;SDS011;29810;55.848;37.368;2023-06-22T13:15:06;6.87;;;5.85;;
44147;SDS011;29810;55.848;37.368;2023-06-22T13:18:09;21.60;;;7.45;;
44147;SDS011;29810;55.848;37.368;2023-06-22T13:21:11;9.98;;;6.43;;
44147;SDS011;29810;55.848;37.368;2023-06-22T13:24:14;19.10;;;7.93;;
44147;SDS011;29810;55.848;37.368;2023-06-22T13:27:15;7.78;;;6.05;;
44147;SDS011;29810;55.848;37.368;2023-06-22T13:30:18;8.30;;;6.57;;
44147;SDS011;29810;55.848;37.368;2023-06-22T13:33:19;7.45;;;6.00;;
44147;SDS011;29810;55.848;37.368;2023-06-22T13:36:22;8.50;;;6.40;;
44147;SDS011;29810;55.848;37.368;2023-06-22T13:39:24;6.82;;;6.10;;
44147;SDS011;29810;55.848;37.368;2023-06-22T13:42:27;9.43;;;6.45;;
44147;SDS011;29810;55.848;37.368;2023-06-22T13:45:28;7.40;;;5.80;;
44147;SDS011;29810;55.848;37.368;2023-06-22T13:48:32;6.40;;;5.80;;
44147;SDS011;29810;55.848;37.368;2023-06-22T13:51:33;7.43;;;5.87;;
44147;SDS011;29810;55.848;37.368;2023-06-22T13:54:37;8.00;;;6.05;;
44147;SDS011;29810;55.848;37.368;2023-06-22T13:57:38;9.27;;;6.37;;
44147;SDS011;29810;55.848;37.368;2023-06-22T14:00:41;8.20;;;5.95;;
44147;SDS011;29810;55.848;37.368;2023-06-22T14:03:44;7.30;;;5.82;;
44147;SDS011;29810;55.848;37.368;2023-06-22T14:06:47;15.32;;;6.10;;
44147;SDS011;29810;55.848;37.368;2023-06-22T14:09:50;8.82;;;6.00;;
44147;SDS011;29810;55.848;37.368;2023-06-22T14:12:52;7.87;;;5.97;;
44147;SDS011;29810;55.848;37.368;2023-06-22T14:15:57;8.07;;;5.97;;
44147;SDS011;29810;55.848;37.368;2023-06-22T14:18:58;10.45;;;6.53;;
44147;SDS011;29810;55.848;37.368;2023-06-22T14:22:01;9.52;;;6.10;;
44147;SDS011;29810;55.848;37.368;2023-06-22T14:25:04;7.65;;;6.20;;
44147;SDS011;29810;55.848;37.368;2023-06-22T14:28:06;9.75;;;6.65;;
44147;SDS011;29810;55.848;37.368;2023-06-22T14:31:08;10.00;;;6.72;;
44147;SDS011;29810;55.848;37.368;2023-06-22T14:34:11;7.95;;;6.00;;
44147;SDS011;29810;55.848;37.368;2023-06-22T14:37:12;9.50;;;6.20;;
44147;SDS011;29810;55.848;37.368;2023-06-22T14:40:15;10.65;;;6.12;;
44147;SDS011;29810;55.848;37.368;2023-06-22T14:43:17;7.22;;;6.05;;
44147;SDS011;29810;55.848;37.368;2023-06-22T14:46:19;7.60;;;6.72;;
44147;SDS011;29810;55.848;37.368;2023-06-22T14:49:21;6.93;;;6.20;;
44147;SDS011;29810;55.848;37.368;2023-06-22T14:52:24;7.28;;;6.25;;
44147;SDS011;29810;55.848;37.368;2023-06-22T14:55:26;7.37;;;6.07;;
44147;SDS011;29810;55.848;37.368;2023-06-22T14:58:30;9.43;;;6.62;;
44147;SDS011;29810;55.848;37.368;2023-06-22T15:01:34;8.50;;;5.87;;
44147;SDS011;29810;55.848;37.368;2023-06-22T15:04:39;7.07;;;5.97;;
44147;SDS011;29810;55.848;37.368;2023-06-22T15:07:40;10.82;;;6.00;;
44147;SDS011;29810;55.848;37.368;2023-06-22T15:10:43;8.35;;;6.57;;
44147;SDS011;29810;55.848;37.368;2023-06-22T15:13:44;7.28;;;5.95;;
44147;SDS011;29810;55.848;37.368;2023-06-22T15:16:47;9.35;;;6.07;;
44147;SDS011;29810;55.848;37.368;2023-06-22T15:19:49;6.40;;;5.80;;
44147;SDS011;29810;55.848;37.368;2023-06-22T15:22:52;7.80;;;6.28;;
44147;SDS011;29810;55.848;37.368;2023-06-22T15:25:53;6.82;;;6.00;;
44147;SDS011;29810;55.848;37.368;2023-06-22T15:28:56;8.82;;;6.05;;
44147;SDS011;29810;55.848;37.368;2023-06-22T15:31:58;7.00;;;6.25;;
44147;SDS011;29810;55.848;37.368;2023-06-22T15:35:00;6.93;;;5.95;;
44147;SDS011;29810;55.848;37.368;2023-06-22T15:38:01;9.50;;;6.25;;
44147;SDS011;29810;55.848;37.368;2023-06-22T15:41:05;8.00;;;6.28;;
44147;SDS011;29810;55.848;37.368;2023-06-22T15:44:06;8.70;;;6.28;;
44147;SDS011;29810;55.848;37.368;2023-06-22T15:47:09;7.28;;;6.57;;
44147;SDS011;29810;55.848;37.368;2023-06-22T15:50:11;7.12;;;6.43;;
44147;SDS011;29810;55.848;37.368;2023-06-22T15:53:14;9.57;;;6.40;;
44147;SDS011;29810;55.848;37.368;2023-06-22T15:56:15;7.57;;;6.12;;
44147;SDS011;29810;55.848;37.368;2023-06-22T15:59:18;7.75;;;6.18;;
44147;SDS011;29810;55.848;37.368;2023-06-22T16:02:20;7.05;;;6.18;;
44147;SDS011;29810;55.848;37.368;2023-06-22T16:05:24;6.45;;;5.85;;
44147;SDS011;29810;55.848;37.368;2023-06-22T16:08:25;8.18;;;6.40;;
44147;SDS011;29810;55.848;37.368;2023-06-22T16:11:29;9.57;;;6.60;;
44147;SDS011;29810;55.848;37.368;2023-06-22T16:14:30;7.12;;;6.03;;
44147;SDS011;29810;55.848;37.368;2023-06-22T16:17:33;7.22;;;6.12;;
44147;SDS011;29810;55.848;37.368;2023-06-22T16:20:39;7.95;;;6.35;;
44147;SDS011;29810;55.848;37.368;2023-06-22T16:23:42;8.27;;;6.32;;
44147;SDS011;29810;55.848;37.368;2023-06-22T16:26:43;9.32;;;6.40;;
44147;SDS011;29810;55.848;37.368;2023-06-22T16:29:46;22.77;;;5.80;;
44147;SDS011;29810;55.848;37.368;2023-06-22T16:32:54;15.55;;;5.75;;
44147;SDS011;29810;55.848;37.368;2023-06-22T16:36:02;10.32;;;5.62;;
44147;SDS011;29810;55.848;37.368;2023-06-22T16:39:03;12.63;;;5.47;;
44147;SDS011;29810;55.848;37.368;2023-06-22T16:42:09;13.07;;;6.00;;
44147;SDS011;29810;55.848;37.368;2023-06-22T16:45:12;12.68;;;5.70;;
44147;SDS011;29810;55.848;37.368;2023-06-22T16:48:16;13.10;;;5.30;;
44147;SDS011;29810;55.848;37.368;2023-06-22T16:51:18;8.60;;;5.37;;
44147;SDS011;29810;55.848;37.368;2023-06-22T16:54:22;10.40;;;5.93;;
44147;SDS011;29810;55.848;37.368;2023-06-22T16:57:24;9.77;;;5.50;;
44147;SDS011;29810;55.848;37.368;2023-06-22T17:00:27;13.10;;;5.72;;
44147;SDS011;29810;55.848;37.368;2023-06-22T17:03:29;12.55;;;6.30;;
44147;SDS011;29810;55.848;37.368;2023-06-22T17:06:41;10.90;;;6.53;;
44147;SDS011;29810;55.848;37.368;2023-06-22T17:09:45;11.02;;;6.50;;
44147;SDS011;29810;55.848;37.368;2023-06-22T17:12:49;12.23;;;6.40;;
44147;SDS011;29810;55.848;37.368;2023-06-22T17:15:52;12.60;;;5.32;;
44147;SDS011;29810;55.848;37.368;2023-06-22T17:19:03;9.35;;;5.30;;
44147;SDS011;29810;55.848;37.368;2023-06-22T17:22:06;13.05;;;5.90;;
44147;SDS011;29810;55.848;37.368;2023-06-22T17:25:09;9.93;;;5.30;;
44147;SDS011;29810;55.848;37.368;2023-06-22T17:28:11;12.52;;;5.28;;
44147;SDS011;29810;55.848;37.368;2023-06-22T17:31:14;11.73;;;5.40;;
44147;SDS011;29810;55.848;37.368;2023-06-22T17:34:17;14.65;;;5.95;;
44147;SDS011;29810;55.848;37.368;2023-06-22T17:37:23;8.10;;;5.35;;
44147;SDS011;29810;55.848;37.368;2023-06-22T17:40:25;9.60;;;5.50;;
44147;SDS011;29810;55.848;37.368;2023-06-22T17:43:29;10.18;;;5.60;;
44147;SDS011;29810;55.848;37.368;2023-06-22T17:46:37;11.75;;;5.35;;
44147;SDS011;29810;55.848;37.368;2023-06-22T17:49:40;7.68;;;5.45;;
44147;SDS011;29810;55.848;37.368;2023-06-22T17:52:51;8.90;;;5.37;;
44147;SDS011;29810;55.848;37.368;2023-06-22T17:55:56;12.13;;;5.95;;
44147;SDS011;29810;55.848;37.368;2023-06-22T18:02:08;7.93;;;5.43;;
44147;SDS011;29810;55.848;37.368;2023-06-22T18:05:14;11.88;;;5.50;;
44147;SDS011;29810;55.848;37.368;2023-06-22T18:08:17;12.95;;;6.10;;
44147;SDS011;29810;55.848;37.368;2023-06-22T18:11:29;10.10;;;6.55;;
44147;SDS011;29810;55.848;37.368;2023-06-22T18:14:33;9.98;;;6.10;;
44147;SDS011;29810;55.848;37.368;2023-06-22T18:17:37;9.55;;;6.05;;
44147;SDS011;29810;55.848;37.368;2023-06-22T18:20:42;12.95;;;6.03;;
44147;SDS011;29810;55.848;37.368;2023-06-22T18:23:46;11.85;;;5.93;;